Time;durP1;ratioP1;P1;durP2;ratioP2;P2;SDS_P1;SDS_P2;PMS_P1;PMS_P2;Temp;Humidity;BMP_temperature;BMP_pressure;BME280_temperature;BME280_humidity;BME280_pressure;Samples;Min_cycle;Max_cycle;Signal;HPM_P1;HPM_P2
2024/03/05 00:01:36;;;;;;;15.63;11.05;;;;;;;19.97;42.37;101385.25;5084584;28;20511;-74
2024/03/05 00:04:03;;;;;;;15.82;10.07;;;;;;;19.94;42.29;101384.75;5082908;28;20127;-74
2024/03/05 00:06:29;;;;;;;14.25;10.43;;;;;;;19.89;42.49;101391.34;5079966;28;21178;-74
2024/03/05 00:08:54;;;;;;;13.88;10.02;;;;;;;19.88;42.55;101394.97;5067530;28;20040;-74
2024/03/05 00:11:20;;;;;;;15.30;10.73;;;;;;;19.91;42.49;101396.47;5083472;28;20110;-74
2024/03/05 00:13:46;;;;;;;15.38;10.68;;;;;;;20.09;42.01;101398.91;5087252;28;20032;-74
2024/03/05 00:16:11;;;;;;;13.88;10.50;;;;;;;19.98;42.28;101397.47;5081690;28;20511;-74
2024/03/05 00:18:37;;;;;;;15.60;12.10;;;;;;;19.95;42.28;101395.16;5084721;28;20048;-74
2024/03/05 00:21:02;;;;;;;14.93;11.25;;;;;;;19.92;42.29;101390.19;5083169;28;20043;-74
2024/03/05 00:23:28;;;;;;;14.60;10.95;;;;;;;19.94;42.20;101395.31;5081611;28;20032;-74
2024/03/05 00:25:53;;;;;;;15.30;11.95;;;;;;;19.87;42.38;101398.63;5081276;28;20559;-74
2024/03/05 00:28:19;;;;;;;16.30;11.70;;;;;;;19.85;42.46;101400.59;5082477;28;20039;-73
2024/03/05 00:30:45;;;;;;;14.48;11.07;;;;;;;19.88;42.40;101396.81;5084062;28;20633;-74
2024/03/05 00:33:10;;;;;;;14.93;10.68;;;;;;;19.86;42.33;101396.16;5082546;28;20097;-73
2024/03/05 00:35:36;;;;;;;15.55;11.80;;;;;;;19.84;42.18;101387.56;5083594;28;20142;-74
2024/03/05 00:38:03;;;;;;;16.02;11.15;;;;;;;19.84;42.32;101401.59;5070033;28;20055;-74
2024/03/05 00:40:29;;;;;;;15.63;10.90;;;;;;;19.81;42.43;101395.81;5081314;28;20068;-74
2024/03/05 00:42:55;;;;;;;15.98;11.25;;;;;;;19.89;42.16;101396.63;5088676;28;20105;-74
2024/03/05 00:45:21;;;;;;;15.63;12.05;;;;;;;19.91;42.09;101389.34;5065499;28;20540;-74
2024/03/05 00:47:47;;;;;;;14.82;10.35;;;;;;;19.91;42.13;101399.94;5069255;28;20042;-74
2024/03/05 00:50:16;;;;;;;15.00;11.25;;;;;;;19.70;42.51;101375.00;5084395;28;20044;-74
2024/03/05 00:52:41;;;;;;;14.32;10.90;;;;;;;19.98;42.05;101394.00;5085728;28;20060;-74
2024/03/05 00:55:07;;;;;;;16.17;12.18;;;;;;;19.87;42.07;101388.03;5069888;28;20168;-74
2024/03/05 00:57:36;;;;;;;14.63;11.38;;;;;;;19.86;42.16;101394.31;5084239;28;20035;-74
2024/03/05 01:00:03;;;;;;;14.88;11.55;;;;;;;19.77;42.03;101376.84;5085085;28;20040;-74
2024/03/05 01:02:28;;;;;;;15.95;11.32;;;;;;;19.86;42.12;101382.94;5086376;28;20119;-74
2024/03/05 01:04:54;;;;;;;15.20;11.52;;;;;;;19.82;42.14;101386.91;5081587;28;20080;-72
2024/03/05 01:07:19;;;;;;;16.88;12.32;;;;;;;19.80;42.29;101396.81;5081507;28;20149;-73
2024/03/05 01:09:47;;;;;;;16.08;11.63;;;;;;;19.80;42.30;101389.72;5064769;28;20052;-74
2024/03/05 01:12:12;;;;;;;16.35;12.45;;;;;;;19.93;41.98;101389.22;5086400;28;20040;-74
2024/03/05 01:14:38;;;;;;;16.05;11.25;;;;;;;19.78;42.05;101386.41;5087327;28;20376;-74
2024/03/05 01:17:04;;;;;;;16.13;11.80;;;;;;;19.85;42.05;101382.09;5088190;28;20036;-74
2024/03/05 01:19:31;;;;;;;17.98;12.00;;;;;;;19.78;42.24;101385.59;5084224;28;20028;-74
2024/03/05 01:21:58;;;;;;;14.85;11.90;;;;;;;19.68;42.55;101387.56;5082370;28;20055;-73
2024/03/05 01:24:25;;;;;;;15.27;11.95;;;;;;;19.91;42.02;101388.53;5082366;28;21035;-74
2024/03/05 01:26:51;;;;;;;15.00;11.32;;;;;;;19.66;42.39;101381.63;5081531;28;20521;-74
2024/03/05 01:29:17;;;;;;;17.48;12.57;;;;;;;19.83;42.06;101380.63;5087138;28;20084;-74
2024/03/05 01:31:44;;;;;;;16.80;12.23;;;;;;;19.73;42.18;101379.94;5069875;28;20100;-74
2024/03/05 01:34:10;;;;;;;15.63;11.75;;;;;;;19.85;42.04;101384.75;5084750;28;20039;-74
2024/03/05 01:36:36;;;;;;;17.35;11.80;;;;;;;19.78;42.11;101367.09;5098198;27;20036;-74
2024/03/05 01:39:04;;;;;;;14.45;11.40;;;;;;;19.83;42.04;101375.34;5084407;28;20272;-74
2024/03/05 01:41:30;;;;;;;16.77;13.10;;;;;;;19.70;42.27;101378.47;5086592;28;20054;-74
2024/03/05 01:43:56;;;;;;;16.42;11.82;;;;;;;19.68;42.45;101384.91;5053016;28;20039;-73
2024/03/05 01:46:22;;;;;;;15.20;11.70;;;;;;;19.84;41.90;101371.69;5083651;28;20078;-74
2024/03/05 01:48:50;;;;;;;17.83;12.80;;;;;;;19.73;42.01;101364.91;5088345;28;20725;-74
2024/03/05 01:51:17;;;;;;;16.20;12.88;;;;;;;19.76;42.16;101377.81;5059595;28;20039;-74
2024/03/05 01:53:44;;;;;;;17.35;12.68;;;;;;;19.61;42.43;101382.13;5084558;28;20032;-74
2024/03/05 01:56:11;;;;;;;16.27;12.52;;;;;;;19.55;42.41;101358.97;5071825;28;20456;-74
2024/03/05 01:58:39;;;;;;;16.98;11.95;;;;;;;19.72;42.29;101376.47;5066970;28;20040;-74
2024/03/05 02:01:06;;;;;;;15.68;11.60;;;;;;;19.80;42.07;101375.69;5082094;28;20044;-74
2024/03/05 02:03:35;;;;;;;16.50;12.77;;;;;;;19.68;42.28;101379.63;5089395;28;20039;-74
2024/03/05 02:06:01;;;;;;;15.10;12.77;;;;;;;19.61;42.33;101374.19;5085302;28;20791;-74
2024/03/05 02:08:27;;;;;;;17.13;12.55;;;;;;;19.60;42.48;101383.94;5083811;28;20603;-74
2024/03/05 02:10:53;;;;;;;17.67;13.82;;;;;;;19.65;42.31;101386.06;5064864;28;20058;-74
2024/03/05 02:13:19;;;;;;;16.98;12.68;;;;;;;19.59;42.25;101376.19;5092998;28;20075;-74
2024/03/05 02:15:44;;;;;;;17.42;13.02;;;;;;;19.71;42.00;101387.22;5079155;28;20097;-74
2024/03/05 02:18:11;;;;;;;17.05;13.02;;;;;;;19.63;42.26;101389.88;5077070;28;20032;-74
2024/03/05 02:20:37;;;;;;;16.15;12.73;;;;;;;19.68;42.16;101384.91;5083312;28;20131;-74
2024/03/05 02:23:03;;;;;;;16.75;12.80;;;;;;;19.75;41.96;101388.53;5080448;28;20040;-74
2024/03/05 02:25:31;;;;;;;16.95;12.45;;;;;;;19.76;41.96;101382.28;5104264;27;20020;-74
2024/03/05 02:27:57;;;;;;;20.45;14.05;;;;;;;19.55;42.35;101383.59;5086827;28;20039;-75
2024/03/05 02:30:23;;;;;;;17.35;13.00;;;;;;;19.68;42.14;101390.19;5083510;28;20039;-75
2024/03/05 02:32:50;;;;;;;18.75;13.90;;;;;;;19.72;42.05;101394.97;5080203;28;20074;-74
2024/03/05 02:35:16;;;;;;;20.05;14.30;;;;;;;19.71;42.11;101395.16;5080757;28;20527;-75
2024/03/05 02:37:42;;;;;;;19.95;13.57;;;;;;;19.65;42.18;101401.94;5081020;28;20044;-74
2024/03/05 02:40:15;;;;;;;17.67;13.02;;;;;;;19.65;42.22;101395.81;5083741;28;20348;-74
2024/03/05 02:42:41;;;;;;;17.63;13.02;;;;;;;19.63;42.15;101401.28;5084345;28;20047;-74
2024/03/05 02:45:07;;;;;;;17.80;14.10;;;;;;;19.55;42.17;101394.16;5083567;28;20078;-74
2024/03/05 02:47:34;;;;;;;17.67;13.60;;;;;;;19.47;42.49;101399.41;5086375;28;20047;-74
2024/03/05 02:50:00;;;;;;;17.95;13.18;;;;;;;19.65;42.10;101403.75;5085616;28;20444;-74
2024/03/05 02:52:28;;;;;;;18.30;13.65;;;;;;;19.53;42.45;101393.47;5087270;28;20039;-74
2024/03/05 02:54:54;;;;;;;19.95;14.40;;;;;;;19.53;42.34;101395.28;5084425;28;20035;-74
2024/03/05 02:57:20;;;;;;;19.13;14.25;;;;;;;19.52;42.37;101399.72;5081152;28;20044;-75
2024/03/05 02:59:45;;;;;;;18.27;13.60;;;;;;;19.59;42.21;101387.56;5082059;28;20051;-74
2024/03/05 03:02:11;;;;;;;18.25;13.73;;;;;;;19.50;42.10;101379.75;5088424;28;20035;-74
2024/03/05 03:04:37;;;;;;;18.88;13.90;;;;;;;19.41;42.51;101391.31;5051445;28;20062;-74
2024/03/05 03:07:03;;;;;;;18.95;13.63;;;;;;;19.48;42.45;101387.03;5081266;28;20028;-75
2024/03/05 03:09:28;;;;;;;18.75;13.85;;;;;;;19.69;42.01;101400.59;5102913;27;20797;-74
2024/03/05 03:11:55;;;;;;;17.90;13.75;;;;;;;19.46;42.50;101391.66;5087783;28;20105;-75
2024/03/05 03:14:21;;;;;;;19.60;14.50;;;;;;;19.43;42.52;101400.72;5084423;28;20541;-75
2024/03/05 03:16:49;;;;;;;19.38;14.10;;;;;;;19.58;42.13;101387.75;5054055;28;20735;-75
2024/03/05 03:19:16;;;;;;;19.92;14.18;;;;;;;19.52;42.31;101396.25;5081468;28;20059;-74
2024/03/05 03:21:42;;;;;;;19.88;14.77;;;;;;;19.35;42.56;101387.50;5081942;28;20062;-74
2024/03/05 03:24:11;;;;;;;21.13;14.77;;;;;;;19.62;42.04;101394.34;5081883;28;20032;-74
2024/03/05 03:26:38;;;;;;;21.35;16.15;;;;;;;19.34;42.35;101383.19;5102058;27;20130;-74
2024/03/05 03:29:07;;;;;;;19.20;13.90;;;;;;;19.51;42.34;101403.38;5065784;28;20126;-74
2024/03/05 03:31:32;;;;;;;18.50;14.48;;;;;;;19.51;42.28;101400.72;5064369;28;20059;-74
2024/03/05 03:33:58;;;;;;;17.75;13.57;;;;;;;19.36;42.52;101398.88;5068615;28;20630;-75
2024/03/05 03:36:24;;;;;;;21.08;15.05;;;;;;;19.44;42.07;101391.81;5062524;28;20055;-74
2024/03/05 03:38:51;;;;;;;20.65;14.23;;;;;;;19.46;42.38;101403.03;5086046;28;20647;-75
2024/03/05 03:41:17;;;;;;;19.52;14.43;;;;;;;19.42;42.47;101400.88;5081966;28;20043;-75
2024/03/05 03:43:43;;;;;;;18.38;13.52;;;;;;;19.43;42.32;101403.38;5083600;28;20035;-74
2024/03/05 03:46:09;;;;;;;19.10;14.80;;;;;;;19.42;42.15;101388.50;5081586;28;20177;-74
2024/03/05 03:48:37;;;;;;;18.67;13.95;;;;;;;19.43;42.48;101405.19;5083619;28;20059;-74
2024/03/05 03:51:04;;;;;;;19.13;14.55;;;;;;;19.50;42.23;101407.00;5083524;28;20055;-74
2024/03/05 03:53:30;;;;;;;17.55;12.98;;;;;;;19.44;42.39;101402.38;5079969;28;20063;-74
2024/03/05 03:55:59;;;;;;;19.27;14.20;;;;;;;19.38;42.32;101389.81;5081593;28;20071;-74
2024/03/05 03:58:25;;;;;;;18.65;13.77;;;;;;;19.47;42.38;101409.16;5085419;28;20051;-74
2024/03/05 04:00:50;;;;;;;18.23;13.82;;;;;;;19.23;42.60;101388.81;5048493;28;20040;-74
2024/03/05 04:03:16;;;;;;;19.33;14.45;;;;;;;19.52;42.24;101410.28;5083950;28;20527;-74
2024/03/05 04:05:44;;;;;;;18.10;14.48;;;;;;;19.32;42.44;101398.38;5079012;28;20541;-74
2024/03/05 04:08:10;;;;;;;18.73;14.23;;;;;;;19.39;42.34;101395.91;5080657;28;20070;-74
2024/03/05 04:10:36;;;;;;;17.42;13.60;;;;;;;19.27;42.47;101393.59;5083048;28;20489;-74
2024/03/05 04:13:03;;;;;;;16.58;14.02;;;;;;;18.92;42.50;101347.16;5084868;28;20040;-74
2024/03/05 04:15:29;;;;;;;18.88;14.45;;;;;;;19.41;42.34;101415.09;5049742;28;20040;-75
2024/03/05 04:17:55;;;;;;;19.70;14.88;;;;;;;19.15;42.43;101386.13;5083701;28;20736;-75
2024/03/05 04:20:20;;;;;;;17.88;14.07;;;;;;;19.41;42.41;101420.38;5065740;28;20048;-74
2024/03/05 04:22:46;;;;;;;19.70;15.02;;;;;;;19.36;42.29;101412.09;5087508;28;20040;-74
2024/03/05 04:25:13;;;;;;;19.55;14.38;;;;;;;19.33;42.42;101416.72;5082994;28;20036;-74
2024/03/05 04:27:45;;;;;;;16.65;13.02;;;;;;;19.44;42.42;101427.97;5088688;28;20123;-74
2024/03/05 04:30:13;;;;;;;18.67;13.40;;;;;;;19.36;42.36;101420.84;5087425;28;20047;-74
2024/03/05 04:32:49;;;;;;;17.92;14.35;;;;;;;19.09;42.93;101408.75;5083044;28;20032;-75
2024/03/05 04:35:16;;;;;;;16.27;13.32;;;;;;;19.17;42.54;101398.19;5088598;28;20139;-75
2024/03/05 04:37:42;;;;;;;16.40;13.30;;;;;;;19.25;42.33;101413.25;5086364;28;20530;-74
2024/03/05 04:40:10;;;;;;;18.85;14.77;;;;;;;19.26;42.62;101420.16;5089548;28;20130;-74
2024/03/05 04:42:45;;;;;;;16.48;13.63;;;;;;;19.16;42.93;101414.19;5088018;28;20036;-75
2024/03/05 04:45:11;;;;;;;17.38;13.00;;;;;;;19.18;42.52;101405.13;5090804;28;20038;-74
2024/03/05 04:47:37;;;;;;;18.50;14.10;;;;;;;19.26;42.51;101417.53;5093188;28;20189;-73
2024/03/05 04:50:04;;;;;;;18.52;13.32;;;;;;;19.23;42.64;101410.75;5089477;28;20394;-75
2024/03/05 04:52:30;;;;;;;17.35;13.27;;;;;;;19.37;42.25;101417.19;5085002;28;20044;-74
2024/03/05 04:54:56;;;;;;;16.80;12.85;;;;;;;19.07;42.87;101410.72;5075094;28;20055;-72
2024/03/05 04:57:21;;;;;;;18.27;13.48;;;;;;;19.04;42.89;101405.75;5102277;27;20051;-74
2024/03/05 04:59:47;;;;;;;17.50;13.45;;;;;;;19.26;42.60;101409.59;5064559;28;20039;-74
2024/03/05 05:02:12;;;;;;;16.95;13.15;;;;;;;19.09;42.75;101414.00;5053294;28;20045;-75
2024/03/05 05:04:38;;;;;;;18.88;13.52;;;;;;;19.14;42.59;101403.78;5106592;27;20043;-75
2024/03/05 05:07:07;;;;;;;17.20;12.68;;;;;;;19.21;42.60;101414.53;5068101;28;20042;-74
2024/03/05 05:09:40;;;;;;;16.77;12.85;;;;;;;19.28;42.45;101418.19;5103214;27;20111;-76
2024/03/05 05:12:06;;;;;;;18.83;13.10;;;;;;;19.06;42.88;101410.88;5085532;28;20118;-75
2024/03/05 05:14:32;;;;;;;17.17;13.18;;;;;;;19.30;42.34;101424.13;5086519;28;20044;-75
2024/03/05 05:16:59;;;;;;;17.10;12.70;;;;;;;19.28;42.34;101416.38;5071401;28;20712;-75
2024/03/05 05:19:25;;;;;;;16.13;12.32;;;;;;;19.23;42.42;101415.22;5088550;28;20040;-75
2024/03/05 05:21:53;;;;;;;17.08;13.10;;;;;;;19.16;42.65;101428.22;5100673;27;20074;-75
2024/03/05 05:24:19;;;;;;;16.33;12.98;;;;;;;19.15;42.71;101420.47;5084786;28;20044;-74
2024/03/05 05:26:44;;;;;;;16.08;12.82;;;;;;;19.11;42.81;101421.78;5088134;28;20044;-75
2024/03/05 05:29:10;;;;;;;16.95;12.27;;;;;;;19.10;42.77;101417.47;5083476;28;20043;-75
2024/03/05 05:31:36;;;;;;;17.85;13.50;;;;;;;19.18;42.53;101420.13;5091808;28;20040;-75
2024/03/05 05:34:03;;;;;;;17.70;13.38;;;;;;;19.15;42.46;101417.81;5070270;28;20110;-74
2024/03/05 05:36:29;;;;;;;17.13;13.25;;;;;;;19.13;42.71;101423.25;5068447;28;20044;-75
2024/03/05 05:38:55;;;;;;;16.08;12.65;;;;;;;19.13;42.75;101419.78;5091096;28;20104;-75
2024/03/05 05:41:21;;;;;;;16.70;12.65;;;;;;;19.19;42.64;101422.59;5082721;28;20044;-75
2024/03/05 05:43:48;;;;;;;16.63;13.50;;;;;;;19.16;42.69;101417.66;5087486;28;20374;-75
2024/03/05 05:46:21;;;;;;;17.15;13.90;;;;;;;19.17;42.54;101415.84;5097801;27;20036;-75
2024/03/05 05:48:51;;;;;;;16.83;12.98;;;;;;;19.28;42.39;101423.47;5083687;28;20039;-75
2024/03/05 05:51:22;;;;;;;20.25;14.93;;;;;;;19.31;42.35;101416.03;5084351;28;20040;-75
2024/03/05 05:53:47;;;;;;;17.30;13.68;;;;;;;19.25;42.60;101421.97;5088030;28;20063;-75
2024/03/05 05:56:13;;;;;;;16.35;12.70;;;;;;;19.17;42.49;101392.06;5070055;28;20066;-74
2024/03/05 05:58:39;;;;;;;20.55;15.05;;;;;;;19.44;42.15;101425.31;5085928;28;20109;-75
2024/03/05 06:01:09;;;;;;;16.77;13.25;;;;;;;19.38;42.26;101420.66;5064543;28;20036;-75
2024/03/05 06:03:38;;;;;;;17.40;14.13;;;;;;;19.30;42.21;101410.94;5084517;28;20108;-75
2024/03/05 06:06:04;;;;;;;20.45;15.13;;;;;;;19.44;42.15;101420.03;5083527;28;20046;-75
2024/03/05 06:08:30;;;;;;;16.35;12.25;;;;;;;19.46;42.20;101423.34;5077833;28;20142;-75
2024/03/05 06:10:57;;;;;;;17.85;13.93;;;;;;;19.58;41.96;101425.53;5086320;28;20123;-75
2024/03/05 06:13:25;;;;;;;16.75;12.32;;;;;;;19.52;41.92;101425.31;5068353;28;20043;-75
2024/03/05 06:15:51;;;;;;;16.10;12.30;;;;;;;19.54;42.00;101428.66;5083436;28;20043;-75
2024/03/05 06:18:17;;;;;;;14.75;12.65;;;;;;;19.38;42.11;101412.75;5081686;28;20059;-75
2024/03/05 06:20:43;;;;;;;15.23;12.13;;;;;;;19.59;41.77;101423.72;5068487;28;20044;-75
2024/03/05 06:23:11;;;;;;;16.02;12.50;;;;;;;19.53;42.02;101438.38;5084516;28;20032;-75
2024/03/05 06:25:37;;;;;;;16.05;12.48;;;;;;;19.52;42.35;101436.72;5082942;28;20032;-75
2024/03/05 06:28:03;;;;;;;17.27;12.55;;;;;;;19.32;42.30;101422.97;5083243;28;20047;-75
2024/03/05 06:30:28;;;;;;;16.17;12.35;;;;;;;19.38;42.34;101439.16;5100029;27;20097;-75
2024/03/05 06:32:54;;;;;;;15.85;12.60;;;;;;;19.37;42.36;101438.31;5064677;28;20082;-75
2024/03/05 06:35:26;;;;;;;15.77;12.48;;;;;;;19.33;42.47;101440.47;5065369;28;20052;-75
2024/03/05 06:37:53;;;;;;;16.25;12.98;;;;;;;19.45;42.15;101440.19;5098364;27;20108;-75
2024/03/05 06:40:20;;;;;;;16.48;12.73;;;;;;;19.35;42.42;101448.22;5083138;28;20078;-75
2024/03/05 06:43:03;;;;;;;15.30;11.95;;;;;;;19.27;42.14;101414.72;5087289;28;20039;-75
2024/03/05 06:45:29;;;;;;;15.43;11.80;;;;;;;19.35;42.39;101442.94;5083409;28;20047;-75
2024/03/05 06:47:56;;;;;;;17.13;13.05;;;;;;;19.22;42.65;101448.72;5097754;27;20486;-75
2024/03/05 06:50:33;;;;;;;14.77;11.50;;;;;;;19.22;42.65;101439.97;5091707;28;20055;-75
2024/03/05 06:58:44;;;;;;;15.00;11.60;;;;;;;19.24;42.56;101440.63;5086519;28;20048;-75
2024/03/05 07:01:13;;;;;;;17.35;12.57;;;;;;;19.22;42.73;101453.16;5083576;28;20051;-75
2024/03/05 07:03:40;;;;;;;15.50;11.80;;;;;;;19.23;42.53;101460.94;5068765;28;20105;-75
2024/03/05 07:06:07;;;;;;;17.27;12.50;;;;;;;19.17;42.57;101447.53;5094247;27;20420;-75
2024/03/05 07:08:38;;;;;;;15.57;12.63;;;;;;;19.12;43.09;101460.38;5082592;28;20145;-75
2024/03/05 07:11:05;;;;;;;15.77;11.50;;;;;;;19.09;42.89;101461.53;5080816;28;20064;-75
2024/03/05 07:13:38;;;;;;;16.60;11.95;;;;;;;19.13;42.91;101462.84;5085239;28;20131;-75
2024/03/05 07:16:04;;;;;;;15.73;11.95;;;;;;;19.04;42.85;101455.09;5087834;28;20061;-75
2024/03/05 07:18:30;;;;;;;14.90;11.80;;;;;;;19.07;43.02;101466.16;5086806;28;20055;-75
2024/03/05 07:20:56;;;;;;;15.25;11.73;;;;;;;19.13;42.86;101462.84;5087394;28;20040;-74
2024/03/05 07:23:22;;;;;;;15.18;11.43;;;;;;;19.02;43.04;101452.56;5101791;27;20028;-74
2024/03/05 07:25:47;;;;;;;14.73;11.93;;;;;;;19.05;42.93;101454.09;5083531;28;20040;-74
2024/03/05 07:28:15;;;;;;;14.65;11.95;;;;;;;19.15;42.85;101465.34;5090576;28;20403;-73
2024/03/05 07:30:42;;;;;;;14.57;11.65;;;;;;;19.17;42.78;101468.63;5070523;28;20670;-74
2024/03/05 07:33:12;;;;;;;15.00;12.07;;;;;;;19.49;42.04;101465.28;5086427;28;20056;-73
2024/03/05 07:35:37;;;;;;;14.68;11.75;;;;;;;19.61;41.73;101464.84;5053133;28;20372;-74
2024/03/05 07:38:03;;;;;;;12.68;10.32;;;;;;;19.88;41.25;101460.22;5085022;28;20043;-74
2024/03/05 07:40:29;;;;;;;14.77;11.27;;;;;;;20.01;41.07;101463.22;5088134;28;20048;-74
2024/03/05 07:42:54;;;;;;;15.32;11.75;;;;;;;20.08;40.95;101461.56;5069267;28;20078;-74
2024/03/05 07:45:21;;;;;;;14.57;10.93;;;;;;;20.22;40.82;101462.72;5055198;28;20476;-74
2024/03/05 07:47:49;;;;;;;14.48;10.75;;;;;;;20.19;40.39;101441.88;5072114;28;20729;-73
2024/03/05 07:50:15;;;;;;;12.80;10.25;;;;;;;20.38;40.62;101469.78;5085837;28;20436;-74
2024/03/05 07:52:42;;;;;;;13.25;10.40;;;;;;;20.36;40.59;101469.97;5068314;28;20509;-74
2024/03/05 07:55:10;;;;;;;13.93;10.80;;;;;;;20.26;40.81;101464.00;5084470;28;20116;-74
2024/03/05 07:57:40;;;;;;;14.90;11.20;;;;;;;20.32;40.74;101475.78;5091238;28;20058;-74
2024/03/05 08:00:14;;;;;;;13.90;11.35;;;;;;;20.24;41.04;101481.88;5089337;28;20040;-74
2024/03/05 08:02:42;;;;;;;12.25;10.68;;;;;;;20.13;41.32;101477.75;5087872;28;20117;-74
2024/03/05 08:05:08;;;;;;;13.88;11.13;;;;;;;20.22;41.17;101478.56;5083192;28;20087;-74
2024/03/05 08:07:35;;;;;;;13.77;10.63;;;;;;;20.14;41.26;101479.41;5088034;28;20058;-74
2024/03/05 08:10:08;;;;;;;13.50;10.70;;;;;;;20.15;41.17;101475.78;5085674;28;20044;-74
2024/03/05 08:12:35;;;;;;;13.65;10.60;;;;;;;20.04;41.35;101485.84;5082964;28;20036;-74
2024/03/05 08:15:06;;;;;;;14.73;10.60;;;;;;;20.06;41.35;101489.97;5088846;28;20055;-74
2024/03/05 08:17:33;;;;;;;13.38;10.50;;;;;;;20.04;41.25;101468.16;5071278;28;20153;-74
2024/03/05 08:20:00;;;;;;;15.15;10.75;;;;;;;20.02;41.54;101483.38;5086722;28;20051;-74
2024/03/05 08:22:26;;;;;;;14.20;10.73;;;;;;;20.01;41.47;101480.91;5065390;28;20173;-74
2024/03/05 08:24:51;;;;;;;12.95;10.10;;;;;;;19.91;41.69;101487.16;5086019;28;20126;-75
2024/03/05 08:27:17;;;;;;;12.68;10.65;;;;;;;20.05;41.39;101484.84;5087231;28;20044;-72
2024/03/05 08:29:43;;;;;;;13.18;10.55;;;;;;;19.98;41.57;101484.69;5085750;28;20706;-74
2024/03/05 08:32:09;;;;;;;13.80;11.07;;;;;;;19.95;41.62;101486.84;5088337;28;21339;-74
2024/03/05 08:34:38;;;;;;;13.00;10.48;;;;;;;19.86;41.61;101478.91;5084947;28;20052;-72
2024/03/05 08:37:04;;;;;;;13.38;11.18;;;;;;;19.98;41.58;101492.63;5068754;28;20105;-71
2024/03/05 08:39:31;;;;;;;12.63;11.25;;;;;;;19.89;41.71;101496.25;5078279;28;20052;-72
2024/03/05 08:41:58;;;;;;;12.73;10.20;;;;;;;19.84;41.68;101477.41;5092417;28;20409;-72
2024/03/05 08:44:27;;;;;;;13.40;11.07;;;;;;;19.90;41.61;101490.78;5083148;28;20642;-72
2024/03/05 08:46:52;;;;;;;12.88;11.32;;;;;;;19.88;41.69;101494.59;5083146;28;20032;-72
2024/03/05 08:49:18;;;;;;;14.18;10.73;;;;;;;19.87;41.63;101495.59;5083797;28;20032;-72
2024/03/05 08:51:45;;;;;;;16.38;10.80;;;;;;;20.00;41.46;101501.22;5065741;28;20471;-72
2024/03/05 08:54:10;;;;;;;15.20;10.95;;;;;;;20.13;41.27;101498.91;5088788;28;20043;-72
2024/03/05 08:56:39;;;;;;;13.93;10.68;;;;;;;20.06;41.27;101503.19;5083986;28;20097;-74
2024/03/05 08:59:06;;;;;;;14.48;11.00;;;;;;;20.14;41.29;101503.22;5072044;28;20062;-74
2024/03/05 09:01:35;;;;;;;13.05;10.40;;;;;;;20.04;41.31;101502.53;5084418;28;20237;-72
2024/03/05 09:04:06;;;;;;;14.43;11.13;;;;;;;20.15;41.15;101502.22;5082184;28;20036;-71
2024/03/05 09:06:34;;;;;;;12.65;10.45;;;;;;;20.09;41.40;101505.50;5081620;28;20040;-72
2024/03/05 09:09:00;;;;;;;13.00;10.32;;;;;;;20.08;41.42;101505.66;5082785;28;20040;-72
2024/03/05 09:11:26;;;;;;;12.98;10.60;;;;;;;20.03;41.41;101513.28;5083699;28;20050;-72
2024/03/05 09:13:51;;;;;;;16.52;10.82;;;;;;;19.88;41.55;101491.94;5082760;28;20052;-72
2024/03/05 09:16:20;;;;;;;13.65;10.63;;;;;;;19.94;41.97;101507.19;5082027;28;20094;-72
2024/03/05 09:18:46;;;;;;;14.52;10.98;;;;;;;19.84;42.02;101506.50;5080836;28;20045;-71
2024/03/05 09:21:12;;;;;;;11.75;9.48;;;;;;;19.96;41.73;101507.84;5069452;28;20055;-72
2024/03/05 09:23:41;;;;;;;13.25;10.43;;;;;;;19.99;41.86;101506.69;5084224;28;20684;-72
2024/03/05 09:26:07;;;;;;;13.10;10.37;;;;;;;19.98;41.57;101503.22;5085792;28;21601;-71
2024/03/05 09:28:36;;;;;;;12.77;10.13;;;;;;;20.41;41.14;101506.53;5080631;28;20047;-72
2024/03/05 09:31:02;;;;;;;13.82;10.60;;;;;;;21.54;38.92;101496.56;5094395;27;20444;-71
2024/03/05 09:33:29;;;;;;;13.27;10.43;;;;;;;22.11;38.05;101509.47;5081416;28;20067;-71
2024/03/05 09:35:55;;;;;;;12.70;10.13;;;;;;;22.32;37.23;101499.00;5081522;28;20075;-70
2024/03/05 09:38:21;;;;;;;12.82;10.52;;;;;;;22.04;37.93;101506.66;5058457;28;20657;-71
2024/03/05 09:40:47;;;;;;;13.25;10.43;;;;;;;21.57;38.69;101506.84;5062950;28;20055;-71
2024/03/05 09:43:13;;;;;;;15.13;9.88;;;;;;;21.29;39.19;101503.81;5063474;28;20052;-74
2024/03/05 09:45:41;;;;;;;12.23;9.95;;;;;;;21.19;39.70;101505.84;5060301;28;20138;-73
2024/03/05 09:48:09;;;;;;;13.90;10.30;;;;;;;21.10;39.88;101515.63;5062985;28;20133;-72
2024/03/05 09:50:35;;;;;;;11.43;9.68;;;;;;;20.96;40.20;101516.34;5062068;28;20119;-72
2024/03/05 09:53:01;;;;;;;14.10;10.57;;;;;;;20.92;40.46;101507.09;5083259;28;20043;-72
2024/03/05 09:55:27;;;;;;;12.80;10.13;;;;;;;20.87;40.39;101520.84;5081558;28;20119;-71
2024/03/05 09:57:54;;;;;;;12.68;10.30;;;;;;;20.79;40.58;101511.09;5062418;28;20046;-71
2024/03/05 10:00:20;;;;;;;13.77;10.55;;;;;;;20.71;40.97;101523.53;5083115;28;20070;-71
2024/03/05 10:02:48;;;;;;;15.85;10.60;;;;;;;20.73;40.82;101529.47;5081583;28;20040;-71
2024/03/05 10:05:18;;;;;;;14.23;10.18;;;;;;;20.89;40.51;101526.78;5059700;28;20476;-70
2024/03/05 10:07:44;;;;;;;12.80;10.23;;;;;;;21.18;39.72;101507.63;5063403;28;20036;-71
2024/03/05 10:10:12;;;;;;;13.27;9.63;;;;;;;21.09;40.11;101508.69;5080429;28;20028;-71
2024/03/05 10:12:41;;;;;;;15.02;11.07;;;;;;;21.16;40.15;101522.06;5081396;28;20609;-71
2024/03/05 10:15:22;;;;;;;12.57;9.85;;;;;;;21.18;40.04;101518.22;5095325;27;20046;-72
2024/03/05 10:17:50;;;;;;;15.20;10.90;;;;;;;21.10;40.14;101527.03;5077954;28;20047;-70
2024/03/05 10:20:36;;;;;;;14.18;10.73;;;;;;;21.01;40.46;101536.03;5084117;28;20047;-72
2024/03/05 10:23:04;;;;;;;13.80;10.27;;;;;;;20.79;40.55;101519.03;5081618;28;20131;-72
2024/03/05 10:25:34;;;;;;;12.85;9.80;;;;;;;20.89;40.77;101542.66;5069589;28;20036;-71
2024/03/05 10:28:00;;;;;;;;;;;;;;;20.79;40.80;101539.38;5082405;28;20043;-72
2024/03/05 10:30:33;;;;;;;12.77;10.05;;;;;;;20.72;40.87;101541.06;5081151;28;19999;-72
2024/03/05 10:33:04;;;;;;;13.75;10.32;;;;;;;20.67;41.15;101540.75;5082692;28;20046;-70
2024/03/05 10:35:35;;;;;;;15.50;10.90;;;;;;;20.65;41.06;101542.72;5081126;28;20135;-71
2024/03/05 10:38:03;;;;;;;13.25;10.10;;;;;;;20.61;41.25;101542.22;5099869;27;20038;-71
2024/03/05 10:40:32;;;;;;;15.00;9.85;;;;;;;20.67;40.94;101530.97;5075828;28;20044;-73
2024/03/05 10:43:00;;;;;;;12.80;9.73;;;;;;;20.68;40.98;101542.38;5058796;28;20039;-73
2024/03/05 10:45:27;;;;;;;13.30;10.65;;;;;;;20.57;41.23;101532.97;5055917;28;20032;-72
2024/03/05 10:48:04;;;;;;;13.40;10.45;;;;;;;20.61;41.16;101536.09;5075438;28;20040;-72
2024/03/05 10:50:30;;;;;;;14.43;10.73;;;;;;;20.78;40.77;101537.72;5066486;28;20047;-72
2024/03/05 10:52:57;;;;;;;13.95;10.98;;;;;;;21.16;40.19;101528.19;5092690;27;20040;-72
2024/03/05 10:55:24;;;;;;;13.05;10.02;;;;;;;21.46;39.30;101521.28;5086310;28;20036;-72
2024/03/05 11:00:36;;;;;;;12.88;9.93;;;;;;;21.77;39.01;101531.06;5081104;28;20047;-72
2024/03/05 11:03:07;;;;;;;12.73;9.65;;;;;;;21.45;39.26;101521.47;5083138;28;20069;-72
2024/03/05 11:05:50;;;;;;;12.25;9.68;;;;;;;21.47;39.57;101532.72;5060956;28;20078;-71
2024/03/05 11:08:20;;;;;;;11.77;9.18;;;;;;;21.37;39.90;101539.06;5039979;28;20154;-73
2024/03/05 11:10:50;;;;;;;12.18;10.20;;;;;;;21.15;40.05;101515.94;5080333;28;20121;-72
2024/03/05 11:13:17;;;;;;;12.30;9.88;;;;;;;21.13;40.31;101536.47;5091404;28;20067;-73
2024/03/05 11:15:44;;;;;;;12.23;10.57;;;;;;;21.06;40.28;101544.28;5080288;28;20485;-72
2024/03/05 11:18:28;;;;;;;13.90;10.80;;;;;;;21.02;40.47;101548.28;5064528;28;20035;-72